Time;durP1;ratioP1;P1;durP2;ratioP2;P2;SDS_P1;SDS_P2;PMS_P1;PMS_P2;Temp;Humidity;BMP_temperature;BMP_pressure;BME280_temperature;BME280_humidity;BME280_pressure;Samples;Min_cycle;Max_cycle;Signal;HPM_P1;HPM_P2
2024/03/18 00:00:31;;;;;;;4.50;1.95;;;;;;;8.71;100.00;93067.53;1975529;28;22139;-82
2024/03/18 00:01:33;;;;;;;5.35;2.08;;;;;;;8.77;100.00;93073.88;1948004;28;22104;-87
2024/03/18 00:02:34;;;;;;;3.13;1.85;;;;;;;8.73;100.00;93070.53;1980449;28;20159;-83
2024/03/18 00:03:35;;;;;;;3.03;1.50;;;;;;;8.74;100.00;93077.38;1999405;28;20525;-87
2024/03/18 00:04:36;;;;;;;2.90;1.45;;;;;;;8.91;100.00;93064.16;2007463;28;20033;-84
2024/03/18 00:05:37;;;;;;;4.75;1.77;;;;;;;8.94;100.00;93068.69;1981877;28;20171;-85
2024/03/18 00:06:38;;;;;;;1.95;1.50;;;;;;;8.88;100.00;93071.06;1970358;28;21920;-85
2024/03/18 00:07:39;;;;;;;4.10;1.67;;;;;;;8.87;100.00;93066.91;2027962;28;20039;-84
2024/03/18 00:08:40;;;;;;;5.18;1.52;;;;;;;8.72;100.00;93065.59;2045499;28;20039;-84
2024/03/18 00:09:41;;;;;;;2.55;1.40;;;;;;;8.67;100.00;93066.06;2045834;28;20072;-83
2024/03/18 00:10:42;;;;;;;3.83;1.50;;;;;;;8.78;100.00;93079.97;2051838;28;20023;-82
2024/03/18 00:11:43;;;;;;;1.73;1.25;;;;;;;8.77;100.00;93073.13;2051919;28;20124;-85
2024/03/18 00:12:45;;;;;;;2.85;1.42;;;;;;;8.76;100.00;93075.06;2077739;28;20032;-83
2024/03/18 00:13:46;;;;;;;6.85;1.40;;;;;;;8.67;100.00;93069.47;2095758;28;20032;-84
2024/03/18 00:14:48;;;;;;;1.80;1.20;;;;;;;8.74;100.00;93066.72;2091676;28;20028;-85
2024/03/18 00:15:49;;;;;;;2.40;1.30;;;;;;;8.79;100.00;93068.91;2106776;28;20028;-84
2024/03/18 00:16:50;;;;;;;2.17;1.60;;;;;;;8.76;100.00;93063.66;2099995;28;20032;-82
2024/03/18 00:17:51;;;;;;;3.03;1.33;;;;;;;8.61;100.00;93059.69;2088478;28;20027;-84
2024/03/18 00:18:52;;;;;;;2.65;1.30;;;;;;;8.66;100.00;93067.22;2089831;28;21368;-84
2024/03/18 00:19:53;;;;;;;1.88;1.33;;;;;;;8.63;100.00;93071.44;2102659;28;20526;-88
2024/03/18 00:20:54;;;;;;;2.40;1.20;;;;;;;8.58;100.00;93066.59;2097297;28;20039;-83
2024/03/18 00:21:55;;;;;;;3.08;1.63;;;;;;;8.71;100.00;93067.53;2090248;28;20032;-86
2024/03/18 00:22:57;;;;;;;2.42;1.52;;;;;;;8.76;100.00;93067.06;2088969;28;20023;-83
2024/03/18 00:23:59;;;;;;;2.90;1.40;;;;;;;8.80;100.00;93062.44;2081380;28;20074;-87
2024/03/18 00:25:01;;;;;;;5.43;1.70;;;;;;;8.75;100.00;93056.81;2081994;28;20520;-84
2024/03/18 00:26:02;;;;;;;4.72;1.50;;;;;;;8.77;100.00;93055.22;2102920;28;20056;-86
2024/03/18 00:27:04;;;;;;;2.03;1.80;;;;;;;8.66;100.00;93056.56;2105660;28;20047;-82
2024/03/18 00:28:07;;;;;;;3.88;1.58;;;;;;;8.70;100.00;93055.38;2093372;28;20086;-84
2024/03/18 00:29:08;;;;;;;2.47;1.50;;;;;;;8.68;100.00;93055.00;2095506;28;20056;-84
2024/03/18 00:30:12;;;;;;;2.53;1.67;;;;;;;8.74;100.00;93053.41;2097933;28;20017;-85
2024/03/18 00:31:13;;;;;;;3.45;1.38;;;;;;;8.86;100.00;93060.03;2098473;28;20499;-84
2024/03/18 00:32:15;;;;;;;2.65;1.55;;;;;;;8.66;100.00;93053.91;2106331;28;20067;-85
2024/03/18 00:33:16;;;;;;;3.70;1.40;;;;;;;8.78;100.00;93054.09;2106553;28;20024;-84
2024/03/18 00:34:17;;;;;;;1.90;1.58;;;;;;;8.84;100.00;93054.38;2096076;28;20039;-85
2024/03/18 00:35:19;;;;;;;4.63;1.75;;;;;;;8.66;100.00;93053.91;2079660;28;20944;-86
2024/03/18 00:36:21;;;;;;;2.17;1.50;;;;;;;8.81;100.00;93052.50;2087689;28;20522;-85
2024/03/18 00:37:23;;;;;;;2.53;1.40;;;;;;;8.73;100.00;93040.47;2094668;28;20025;-83
2024/03/18 00:38:24;;;;;;;1.92;1.33;;;;;;;8.74;100.00;93042.75;2093097;28;20025;-89
2024/03/18 00:39:27;;;;;;;2.72;1.52;;;;;;;8.61;100.00;93046.38;2093901;28;20021;-83
2024/03/18 00:40:29;;;;;;;3.25;1.40;;;;;;;8.76;100.00;93040.41;2097691;28;20048;-83
2024/03/18 00:41:48;;;;;;;3.28;1.55;;;;;;;8.71;100.00;93040.88;2097841;28;20059;-87
2024/03/18 00:42:49;;;;;;;2.20;1.40;;;;;;;8.71;100.00;93043.53;2104512;28;20705;-84
2024/03/18 00:43:50;;;;;;;4.45;1.30;;;;;;;8.78;100.00;93040.78;2097969;28;20082;-84
2024/03/18 00:44:53;;;;;;;2.05;1.30;;;;;;;8.80;100.00;93038.44;2094612;28;20056;-86
2024/03/18 00:45:55;;;;;;;5.20;1.20;;;;;;;8.89;100.00;93029.16;2088568;28;20029;-86
2024/03/18 00:46:56;;;;;;;1.83;1.17;;;;;;;8.99;100.00;93026.31;2089159;28;20554;-86
2024/03/18 00:47:58;;;;;;;2.20;1.40;;;;;;;8.87;100.00;93029.59;2089546;28;20158;-83
2024/03/18 00:49:01;;;;;;;1.88;1.40;;;;;;;8.78;100.00;93024.78;2089892;28;20029;-88
2024/03/18 00:50:02;;;;;;;2.40;1.30;;;;;;;8.82;100.00;93020.16;2089687;28;20021;-85
2024/03/18 00:51:03;;;;;;;2.58;1.33;;;;;;;8.78;100.00;93032.78;2098279;28;20714;-86
2024/03/18 00:52:05;;;;;;;1.40;1.10;;;;;;;8.80;100.00;93021.69;2106330;28;20027;-83
2024/03/18 00:53:07;;;;;;;3.50;1.20;;;;;;;8.58;100.00;93021.28;2097857;28;20027;-87
2024/03/18 00:54:09;;;;;;;3.33;1.25;;;;;;;8.70;100.00;93023.38;2098253;28;20024;-82
2024/03/18 00:55:10;;;;;;;2.35;1.13;;;;;;;8.66;100.00;93021.94;2098797;28;20025;-87
2024/03/18 00:56:11;;;;;;;3.67;1.10;;;;;;;8.75;100.00;93022.91;2097803;28;20101;-86
2024/03/18 00:57:12;;;;;;;3.63;1.40;;;;;;;8.62;100.00;93022.00;2081924;28;20033;-83
2024/03/18 00:58:13;;;;;;;2.72;1.33;;;;;;;8.52;100.00;93013.00;2088123;28;20025;-84
2024/03/18 00:59:15;;;;;;;3.53;1.38;;;;;;;8.61;100.00;93023.16;2083043;28;20443;-85
2024/03/18 01:00:18;;;;;;;2.53;1.30;;;;;;;8.64;100.00;93025.00;2096007;28;20035;-84
2024/03/18 01:01:19;;;;;;;2.85;1.30;;;;;;;8.64;100.00;93014.34;2098236;28;20079;-86
2024/03/18 01:02:20;;;;;;;5.57;1.30;;;;;;;8.56;100.00;93019.03;2097851;28;20039;-85
2024/03/18 01:03:21;;;;;;;3.65;1.25;;;;;;;8.61;100.00;93012.50;2089500;28;20551;-84
2024/03/18 01:04:22;;;;;;;1.77;1.15;;;;;;;8.69;100.00;93016.56;2083841;28;20132;-88
2024/03/18 01:05:23;;;;;;;1.60;1.30;;;;;;;8.67;100.00;93018.09;2095230;28;20033;-86
2024/03/18 01:06:26;;;;;;;4.28;1.30;;;;;;;8.68;100.00;93012.38;2106386;28;20024;-84
2024/03/18 01:07:27;;;;;;;1.38;1.20;;;;;;;8.56;100.00;93011.03;2095977;28;20055;-86
2024/03/18 01:08:28;;;;;;;1.75;1.02;;;;;;;8.55;100.00;93006.09;2097125;28;20035;-88
2024/03/18 01:09:29;;;;;;;3.03;1.25;;;;;;;8.65;100.00;93012.41;2097972;28;20029;-86
2024/03/18 01:10:30;;;;;;;3.30;1.33;;;;;;;8.66;100.00;93011.28;2097687;28;20028;-84
2024/03/18 01:11:31;;;;;;;3.25;1.38;;;;;;;8.52;100.00;93009.59;2106242;28;20040;-85
2024/03/18 01:12:32;;;;;;;4.47;1.17;;;;;;;8.55;100.00;93006.09;2089459;28;20028;-86
2024/03/18 01:13:35;;;;;;;1.70;1.10;;;;;;;8.50;100.00;93003.91;2081393;28;20708;-88
2024/03/18 01:14:36;;;;;;;1.63;1.00;;;;;;;8.60;100.00;93007.56;2088858;28;20031;-86
2024/03/18 01:15:38;;;;;;;1.85;1.20;;;;;;;8.72;100.00;93009.66;2105827;28;20024;-87
2024/03/18 01:16:40;;;;;;;5.22;1.13;;;;;;;8.65;100.00;93007.88;2092898;28;20115;-84
2024/03/18 01:17:41;;;;;;;3.60;1.23;;;;;;;8.64;100.00;93001.00;2085492;28;20404;-85
2024/03/18 01:18:43;;;;;;;2.42;1.20;;;;;;;8.65;100.00;93007.09;2089486;28;20033;-84
2024/03/18 01:19:45;;;;;;;1.73;1.30;;;;;;;8.51;100.00;93008.06;2089739;28;20493;-86
2024/03/18 01:20:46;;;;;;;2.58;1.02;;;;;;;8.56;100.00;92999.63;2089611;28;20037;-85
2024/03/18 01:21:48;;;;;;;1.58;1.00;;;;;;;8.58;100.00;93000.72;2097810;28;20031;-85
2024/03/18 01:22:49;;;;;;;7.50;1.20;;;;;;;8.58;100.00;92999.97;2088708;28;20106;-87
2024/03/18 01:23:50;;;;;;;2.65;1.27;;;;;;;8.60;100.00;92994.97;2096161;28;20111;-83
2024/03/18 01:24:51;;;;;;;2.78;1.10;;;;;;;8.38;100.00;92991.91;2097261;28;20032;-86
2024/03/18 01:25:53;;;;;;;1.30;1.10;;;;;;;8.52;100.00;92990.94;2091606;28;20052;-88
2024/03/18 01:26:54;;;;;;;1.42;1.10;;;;;;;8.44;100.00;92987.63;2089637;28;20432;-85
2024/03/18 01:27:55;;;;;;;3.70;1.20;;;;;;;8.46;100.00;92987.97;2096894;28;20111;-87
2024/03/18 01:28:56;;;;;;;4.80;1.23;;;;;;;8.46;100.00;92990.63;2097967;28;20028;-84
2024/03/18 01:29:57;;;;;;;2.00;1.08;;;;;;;8.30;100.00;92980.59;2089424;28;20036;-85
2024/03/18 01:31:03;;;;;;;2.75;1.30;;;;;;;8.28;100.00;92990.13;2089469;28;20542;-85
2024/03/18 01:32:05;;;;;;;8.05;1.35;;;;;;;8.22;100.00;92991.75;2101146;28;20084;-87
2024/03/18 01:33:06;;;;;;;1.80;1.10;;;;;;;8.21;100.00;92985.69;2096171;28;20056;-88
2024/03/18 01:34:09;;;;;;;4.78;1.33;;;;;;;8.25;100.00;92985.63;2089777;28;20028;-86
2024/03/18 01:35:13;;;;;;;4.97;1.70;;;;;;;8.25;100.00;92973.06;2089193;28;20021;-87
2024/03/18 01:36:14;;;;;;;4.50;1.40;;;;;;;8.21;100.00;92982.25;2090204;28;20082;-83
2024/03/18 01:37:15;;;;;;;4.85;1.40;;;;;;;8.14;100.00;92972.47;2089340;28;20031;-83
2024/03/18 01:38:16;;;;;;;3.72;1.50;;;;;;;8.12;100.00;92969.47;2089411;28;20028;-85
2024/03/18 01:39:19;;;;;;;3.22;1.27;;;;;;;8.18;100.00;92970.50;2089363;28;20107;-83
2024/03/18 01:40:20;;;;;;;5.10;1.10;;;;;;;8.16;100.00;92975.47;2103558;28;20070;-83
2024/03/18 01:41:22;;;;;;;1.80;1.20;;;;;;;8.04;100.00;92973.38;2103573;28;20019;-84
2024/03/18 01:42:23;;;;;;;1.13;1.02;;;;;;;8.07;100.00;92973.31;2089150;28;20069;-84
2024/03/18 01:43:24;;;;;;;3.42;1.20;;;;;;;7.90;100.00;92974.34;2080953;28;20040;-85
2024/03/18 01:44:25;;;;;;;1.30;1.20;;;;;;;7.86;100.00;92973.63;2089311;28;20097;-84
2024/03/18 01:45:26;;;;;;;3.65;1.38;;;;;;;7.96;100.00;92972.72;2090728;28;20107;-84
2024/03/18 01:46:27;;;;;;;3.25;1.65;;;;;;;8.00;100.00;92980.66;2082305;28;20111;-84
2024/03/18 01:47:28;;;;;;;3.55;1.75;;;;;;;8.05;100.00;92972.97;2081345;28;20017;-82
2024/03/18 01:48:29;;;;;;;2.13;1.48;;;;;;;8.03;100.00;92977.97;2089446;28;20465;-84
2024/03/18 01:49:30;;;;;;;4.28;1.40;;;;;;;8.05;100.00;92975.63;2097641;28;20051;-83
2024/03/18 01:50:32;;;;;;;4.82;1.80;;;;;;;8.17;100.00;92976.25;2105039;28;20074;-86
2024/03/18 01:51:33;;;;;;;2.03;1.20;;;;;;;8.10;100.00;92977.09;2089527;28;20033;-86
2024/03/18 01:52:35;;;;;;;4.35;1.45;;;;;;;8.07;100.00;92970.66;2084994;28;20049;-81
2024/03/18 01:53:36;;;;;;;4.25;1.10;;;;;;;8.16;100.00;92972.81;2089789;28;20104;-83
2024/03/18 01:54:39;;;;;;;3.47;1.50;;;;;;;8.13;100.00;92970.22;2084815;28;20105;-85
2024/03/18 01:55:41;;;;;;;4.93;2.10;;;;;;;8.11;100.00;92975.94;2081266;28;20017;-82
2024/03/18 01:56:43;;;;;;;3.38;1.20;;;;;;;8.00;100.00;92972.69;2088246;28;20201;-82
2024/03/18 01:57:47;;;;;;;2.47;1.25;;;;;;;7.92;100.00;92965.94;2096868;28;20567;-83
2024/03/18 01:58:49;;;;;;;2.35;1.10;;;;;;;7.82;100.00;92970.28;2105886;28;20387;-84
2024/03/18 01:59:51;;;;;;;3.00;1.45;;;;;;;7.85;100.00;92974.78;2095355;28;20071;-84
2024/03/18 02:00:52;;;;;;;6.28;1.90;;;;;;;7.93;100.00;92970.13;2095831;28;20062;-84
2024/03/18 02:01:52;;;;;;;2.55;1.13;;;;;;;7.85;100.00;92971.38;2104390;28;20036;-86
2024/03/18 02:02:53;;;;;;;3.13;1.30;;;;;;;7.81;100.00;92974.06;2096938;28;20522;-85
2024/03/18 02:03:54;;;;;;;3.80;1.40;;;;;;;7.74;100.00;92972.28;2097476;28;20404;-86
2024/03/18 02:04:55;;;;;;;1.77;1.25;;;;;;;7.73;100.00;92967.34;2096820;28;20336;-85
2024/03/18 02:05:56;;;;;;;4.13;1.30;;;;;;;7.67;100.00;92964.38;2089206;28;20074;-82
2024/03/18 02:06:57;;;;;;;3.63;1.40;;;;;;;7.85;100.00;92971.38;2096415;28;20350;-85
2024/03/18 02:07:59;;;;;;;2.75;1.25;;;;;;;7.95;100.00;92967.81;2104398;28;20476;-85
2024/03/18 02:09:00;;;;;;;3.85;1.30;;;;;;;7.93;100.00;92964.78;2090624;28;20029;-85
2024/03/18 02:10:01;;;;;;;2.22;1.08;;;;;;;7.98;100.00;92964.34;2101999;28;20030;-82
2024/03/18 02:11:02;;;;;;;2.75;1.30;;;;;;;8.04;100.00;92965.41;2100715;28;20028;-86
2024/03/18 02:12:04;;;;;;;7.15;2.08;;;;;;;7.93;100.00;92964.78;2105728;28;20016;-83
2024/03/18 02:13:05;;;;;;;2.15;1.08;;;;;;;7.89;100.00;92954.19;2105435;28;20103;-84
2024/03/18 02:14:13;;;;;;;2.08;1.02;;;;;;;7.83;100.00;92955.81;2105717;28;20020;-82
2024/03/18 02:15:14;;;;;;;1.85;1.30;;;;;;;7.82;100.00;92954.31;2105712;28;20468;-85
2024/03/18 02:16:15;;;;;;;2.40;1.40;;;;;;;7.71;100.00;92956.34;2103874;28;20035;-83
2024/03/18 02:17:17;;;;;;;2.75;1.23;;;;;;;7.87;100.00;92959.19;2089231;28;20048;-85
2024/03/18 02:18:18;;;;;;;2.83;1.27;;;;;;;7.86;100.00;92949.69;2091148;28;20017;-83
2024/03/18 02:19:19;;;;;;;2.95;1.02;;;;;;;7.77;100.00;92944.09;2097337;28;20036;-84
2024/03/18 02:20:22;;;;;;;1.52;1.20;;;;;;;7.58;100.00;92954.22;2087028;28;20041;-84
2024/03/18 02:21:23;;;;;;;4.10;0.80;;;;;;;7.69;100.00;92943.47;2089446;28;20500;-86
2024/03/18 02:22:30;;;;;;;3.20;1.17;;;;;;;7.70;100.00;92939.63;2091314;28;20040;-84
2024/03/18 02:23:31;;;;;;;2.25;0.80;;;;;;;7.66;100.00;92938.94;2089819;28;20029;-84
2024/03/18 02:24:34;;;;;;;2.80;1.30;;;;;;;7.53;100.00;92932.66;2093256;28;20055;-83
2024/03/18 02:27:15;;;;;;;;;;;;;;;7.03;100.00;92933.28;2145990;27;20113;-87
2024/03/18 02:28:16;;;;;;;3.10;1.35;;;;;;;7.51;100.00;92941.03;2121620;28;19911;-86
2024/03/18 02:29:17;;;;;;;3.92;1.40;;;;;;;7.55;100.00;92935.66;2102606;28;20032;-85
2024/03/18 02:30:18;;;;;;;3.05;1.50;;;;;;;7.53;100.00;92935.31;2098314;28;20025;-83
2024/03/18 02:31:20;;;;;;;4.03;1.40;;;;;;;7.35;100.00;92924.16;2109094;28;20127;-81
2024/03/18 02:32:20;;;;;;;3.53;1.50;;;;;;;7.31;100.00;92924.94;2107576;28;20044;-86
2024/03/18 02:33:21;;;;;;;3.85;1.30;;;;;;;7.33;100.00;92932.50;2099609;28;20028;-83
2024/03/18 02:34:23;;;;;;;2.08;1.23;;;;;;;7.34;100.00;92928.72;2103932;28;20050;-83
2024/03/18 02:35:24;;;;;;;2.50;1.35;;;;;;;7.22;100.00;92924.69;2112908;28;20031;-82
2024/03/18 02:36:25;;;;;;;2.45;1.52;;;;;;;7.21;100.00;92928.50;2104464;28;20020;-82
2024/03/18 02:37:26;;;;;;;2.22;1.15;;;;;;;7.35;100.00;92929.47;2104473;28;20048;-82
2024/03/18 02:38:27;;;;;;;1.70;1.40;;;;;;;7.35;100.00;92924.91;2116331;28;20201;-86
2024/03/18 02:39:28;;;;;;;1.90;1.30;;;;;;;7.46;100.00;92928.19;2098098;28;20078;-81
2024/03/18 02:40:29;;;;;;;2.45;1.30;;;;;;;7.44;100.00;92922.50;2110209;28;20409;-85
2024/03/18 02:41:30;;;;;;;2.45;1.50;;;;;;;7.40;100.00;92929.03;2112846;28;20537;-85
2024/03/18 02:42:31;;;;;;;1.42;1.13;;;;;;;7.27;100.00;92924.22;2112979;28;20027;-85
2024/03/18 02:43:32;;;;;;;2.20;1.30;;;;;;;7.31;100.00;92924.19;2104595;28;20436;-83
2024/03/18 02:44:33;;;;;;;3.13;1.35;;;;;;;7.33;100.00;92921.88;2111560;28;20027;-82
2024/03/18 02:45:34;;;;;;;2.10;1.20;;;;;;;7.39;100.00;92914.97;2107753;28;20031;-86
2024/03/18 02:46:35;;;;;;;3.22;1.25;;;;;;;7.43;100.00;92920.25;2117151;28;20043;-82
2024/03/18 02:47:40;;;;;;;3.53;1.40;;;;;;;7.47;100.00;92919.06;2116719;27;20565;-81
2024/03/18 02:48:41;;;;;;;1.85;1.20;;;;;;;7.34;100.00;92915.44;2118323;28;20107;-83
2024/03/18 02:49:43;;;;;;;2.83;1.10;;;;;;;7.42;100.00;92916.06;2116042;28;20122;-82
2024/03/18 02:50:44;;;;;;;2.53;1.00;;;;;;;7.33;100.00;92911.25;2105441;28;20028;-87
2024/03/18 02:51:45;;;;;;;3.95;1.10;;;;;;;7.29;100.00;92910.56;2104369;28;20031;-86
2024/03/18 02:52:46;;;;;;;3.45;1.30;;;;;;;7.22;100.00;92910.63;2104735;28;20024;-84
2024/03/18 02:53:47;;;;;;;1.63;1.13;;;;;;;7.26;100.00;92906.78;2110770;28;20051;-85
2024/03/18 02:54:48;;;;;;;1.40;1.20;;;;;;;7.26;100.00;92908.69;2104533;28;20487;-83
2024/03/18 02:55:52;;;;;;;1.38;0.90;;;;;;;7.25;100.00;92909.84;2110967;28;20074;-83
2024/03/18 02:56:53;;;;;;;2.10;1.15;;;;;;;7.22;100.00;92905.31;2106103;28;20060;-84
2024/03/18 02:57:54;;;;;;;3.15;1.40;;;;;;;7.30;100.00;92910.16;2105192;28;20020;-87
2024/03/18 02:58:55;;;;;;;1.55;1.20;;;;;;;7.11;100.00;92904.69;2102207;28;20111;-85
2024/03/18 02:59:56;;;;;;;3.22;1.10;;;;;;;7.14;100.00;92907.31;2109814;28;20027;-84
2024/03/18 03:00:57;;;;;;;3.33;1.30;;;;;;;7.11;100.00;92905.44;2111190;27;20926;-81
2024/03/18 03:01:58;;;;;;;6.07;1.20;;;;;;;7.14;100.00;92909.22;2119321;28;20205;-84
2024/03/18 03:03:00;;;;;;;1.98;1.20;;;;;;;7.21;100.00;92912.53;2120920;28;20019;-84
2024/03/18 03:04:01;;;;;;;3.50;1.25;;;;;;;7.21;100.00;92906.47;2111312;28;20020;-82
2024/03/18 03:05:02;;;;;;;2.85;1.30;;;;;;;7.20;100.00;92903.06;2120772;28;20411;-85
2024/03/18 03:06:04;;;;;;;3.00;1.60;;;;;;;7.27;100.00;92905.63;2104454;28;20024;-85
2024/03/18 03:07:05;;;;;;;3.55;1.20;;;;;;;7.37;100.00;92901.31;2100294;28;20116;-80
2024/03/18 03:08:06;;;;;;;2.50;1.20;;;;;;;7.27;100.00;92907.53;2107850;28;20050;-83
2024/03/18 03:09:09;;;;;;;3.60;1.30;;;;;;;7.29;100.00;92905.25;2112598;28;20034;-81
2024/03/18 03:10:10;;;;;;;1.42;1.00;;;;;;;7.32;100.00;92899.84;2111256;28;20032;-82
2024/03/18 03:11:11;;;;;;;2.47;1.15;;;;;;;7.32;100.00;92902.50;2104256;28;20044;-86
2024/03/18 03:12:12;;;;;;;1.58;1.00;;;;;;;7.38;100.00;92897.53;2104221;28;20069;-83
2024/03/18 03:13:13;;;;;;;1.30;1.02;;;;;;;7.38;100.00;92902.09;2101135;28;20086;-84
2024/03/18 03:14:15;;;;;;;2.42;1.00;;;;;;;7.43;100.00;92896.31;2113847;27;20063;-82
2024/03/18 03:15:16;;;;;;;1.88;1.00;;;;;;;7.46;100.00;92890.97;2120967;28;20020;-85
2024/03/18 03:16:17;;;;;;;1.00;0.95;;;;;;;7.29;100.00;92895.34;2096440;28;20032;-85
2024/03/18 03:17:18;;;;;;;3.03;1.08;;;;;;;7.28;100.00;92896.50;2114829;28;20044;-84
2024/03/18 03:18:20;;;;;;;2.53;1.25;;;;;;;7.35;100.00;92892.25;2120964;27;20088;-81
2024/03/18 03:19:21;;;;;;;1.70;1.15;;;;;;;7.27;100.00;92895.00;2109776;28;20040;-84
2024/03/18 03:20:30;;;;;;;1.20;0.70;;;;;;;7.42;100.00;92892.91;2107212;27;20032;-83
2024/03/18 03:21:31;;;;;;;3.22;1.00;;;;;;;7.22;100.00;92895.44;2109272;28;20134;-82
2024/03/18 03:22:32;;;;;;;1.95;1.00;;;;;;;7.26;100.00;92895.41;2109042;28;20040;-87
2024/03/18 03:23:34;;;;;;;2.13;1.17;;;;;;;7.43;100.00;92891.00;2104497;28;20028;-84
2024/03/18 03:24:36;;;;;;;3.63;1.15;;;;;;;7.36;100.00;92893.75;2100648;28;20024;-83
2024/03/18 03:25:37;;;;;;;4.53;1.17;;;;;;;7.40;100.00;92889.88;2117315;28;20470;-81
2024/03/18 03:26:40;;;;;;;4.60;1.20;;;;;;;7.43;100.00;92888.34;2103801;28;20044;-83
2024/03/18 03:27:41;;;;;;;3.63;1.30;;;;;;;7.48;100.00;92888.66;2112321;27;20034;-80
2024/03/18 03:28:42;;;;;;;2.63;1.10;;;;;;;7.50;100.00;92888.22;2118216;27;20037;-83
2024/03/18 03:29:43;;;;;;;1.35;0.85;;;;;;;7.29;100.00;92884.72;2120974;28;20082;-84
2024/03/18 03:30:44;;;;;;;2.65;1.00;;;;;;;7.23;100.00;92880.25;2114316;27;20038;-87
2024/03/18 03:31:45;;;;;;;1.58;0.80;;;;;;;7.30;100.00;92875.59;2112631;28;20034;-81
2024/03/18 03:32:46;;;;;;;1.95;1.25;;;;;;;7.44;100.00;92877.31;2104301;28;20372;-85
2024/03/18 03:33:47;;;;;;;2.58;1.20;;;;;;;7.49;100.00;92882.16;2097731;28;20492;-84
2024/03/18 03:34:48;;;;;;;2.03;1.17;;;;;;;7.53;100.00;92877.53;2104170;28;20028;-85
2024/03/18 03:35:49;;;;;;;1.52;1.20;;;;;;;7.43;100.00;92889.09;2112400;28;20032;-84
2024/03/18 03:36:50;;;;;;;2.60;0.98;;;;;;;7.26;100.00;92887.44;2103581;28;20460;-81
2024/03/18 03:37:51;;;;;;;1.20;1.10;;;;;;;7.41;100.00;92882.66;2114887;28;20047;-84
2024/03/18 03:38:52;;;;;;;1.90;1.20;;;;;;;7.32;100.00;92889.22;2123076;27;20118;-80
2024/03/18 03:39:53;;;;;;;1.25;0.90;;;;;;;7.38;100.00;92886.88;2112925;28;20023;-83
2024/03/18 03:40:54;;;;;;;1.92;1.15;;;;;;;7.44;100.00;92879.97;2115254;28;20035;-84
2024/03/18 03:41:55;;;;;;;0.90;0.75;;;;;;;7.42;100.00;92884.94;2113894;28;20529;-84
2024/03/18 03:42:56;;;;;;;1.65;1.00;;;;;;;7.41;100.00;92885.31;2103897;28;20169;-84
2024/03/18 03:43:57;;;;;;;1.42;0.88;;;;;;;7.42;100.00;92876.97;2110257;28;20044;-86
2024/03/18 03:44:58;;;;;;;2.58;1.20;;;;;;;7.51;100.00;92873.81;2110997;28;20028;-82
2024/03/18 03:46:01;;;;;;;2.30;1.20;;;;;;;7.62;100.00;92874.38;2106293;28;20031;-81
2024/03/18 03:47:03;;;;;;;5.28;1.00;;;;;;;7.60;100.00;92862.66;2106769;28;20024;-86
2024/03/18 03:48:04;;;;;;;2.88;1.33;;;;;;;7.43;100.00;92872.38;2090090;28;20466;-83
2024/03/18 03:49:06;;;;;;;0.93;0.82;;;;;;;7.43;100.00;92862.50;2098527;28;20699;-83
2024/03/18 03:50:09;;;;;;;2.72;0.95;;;;;;;7.53;100.00;92860.84;2098472;28;20122;-83
2024/03/18 03:51:10;;;;;;;2.30;1.10;;;;;;;7.46;100.00;92860.94;2099014;28;20101;-84
2024/03/18 03:52:11;;;;;;;5.53;1.00;;;;;;;7.37;100.00;92866.75;2115098;27;20027;-87
2024/03/18 03:53:12;;;;;;;3.00;0.90;;;;;;;7.39;100.00;92871.69;2106704;28;20032;-85
2024/03/18 03:54:14;;;;;;;1.30;1.02;;;;;;;7.46;100.00;92855.63;2098264;28;20031;-84
2024/03/18 03:55:17;;;;;;;3.35;1.25;;;;;;;7.35;100.00;92849.72;2106795;27;20049;-84
2024/03/18 03:56:18;;;;;;;2.13;0.95;;;;;;;7.33;100.00;92866.03;2104735;28;20020;-84
2024/03/18 03:57:19;;;;;;;2.70;1.00;;;;;;;7.32;100.00;92856.56;2104883;28;20081;-83
2024/03/18 03:58:20;;;;;;;1.42;1.10;;;;;;;7.39;100.00;92856.47;2111228;28;20416;-85
2024/03/18 03:59:21;;;;;;;1.27;1.10;;;;;;;7.38;100.00;92865.63;2100680;28;20040;-84
2024/03/18 04:00:23;;;;;;;1.33;1.20;;;;;;;7.43;100.00;92862.50;2101178;28;20032;-82
2024/03/18 04:01:24;;;;;;;2.28;1.10;;;;;;;7.49;100.00;92860.88;2105353;28;20019;-83
2024/03/18 04:02:25;;;;;;;2.38;1.30;;;;;;;7.29;100.00;92866.13;2105549;28;20119;-83
2024/03/18 04:03:27;;;;;;;5.10;2.60;;;;;;;7.36;100.00;92867.16;2095339;28;20033;-82
2024/03/18 04:04:27;;;;;;;3.55;1.30;;;;;;;7.40;100.00;92868.63;2089626;28;20648;-85
2024/03/18 04:05:28;;;;;;;3.53;1.40;;;;;;;7.49;100.00;92858.22;2101946;28;20016;-82
2024/03/18 04:06:29;;;;;;;1.00;0.90;;;;;;;7.38;100.00;92862.22;2103057;28;20024;-81
2024/03/18 04:07:30;;;;;;;3.10;0.93;;;;;;;7.29;100.00;92863.47;2093354;28;20021;-84
2024/03/18 04:08:31;;;;;;;3.97;1.23;;;;;;;7.33;100.00;92852.75;2106621;28;20023;-82
2024/03/18 04:09:32;;;;;;;2.80;1.48;;;;;;;7.41;100.00;92861.38;2115018;28;20064;-81
2024/03/18 04:10:33;;;;;;;3.10;1.20;;;;;;;7.24;100.00;92852.50;2098570;28;20051;-83
2024/03/18 04:11:34;;;;;;;1.83;1.20;;;;;;;7.32;100.00;92852.00;2106647;28;20102;-83
2024/03/18 04:12:35;;;;;;;0.82;0.80;;;;;;;7.40;100.00;92855.31;2098147;28;20025;-83
2024/03/18 04:13:36;;;;;;;1.40;0.93;;;;;;;7.26;100.00;92858.94;2098389;28;20022;-81
2024/03/18 04:14:37;;;;;;;1.27;1.17;;;;;;;7.31;100.00;92855.81;2098155;28;20024;-82
2024/03/18 04:15:45;;;;;;;2.22;1.02;;;;;;;7.43;100.00;92851.13;2109109;28;20390;-86
2024/03/18 04:16:46;;;;;;;1.17;0.90;;;;;;;7.35;100.00;92850.47;2095771;28;20037;-84
2024/03/18 04:17:50;;;;;;;3.63;1.30;;;;;;;7.33;100.00;92847.44;2092258;28;20025;-85
2024/03/18 04:18:52;;;;;;;1.27;1.08;;;;;;;7.25;100.00;92843.38;2101994;28;20138;-83
2024/03/18 04:19:54;;;;;;;1.45;1.15;;;;;;;7.26;100.00;92848.28;2113683;28;20024;-82
2024/03/18 04:20:55;;;;;;;4.75;1.10;;;;;;;7.36;100.00;92843.97;2107592;28;20081;-82
2024/03/18 04:21:56;;;;;;;3.63;1.15;;;;;;;7.36;100.00;92848.56;2105593;28;20035;-81
2024/03/18 04:22:57;;;;;;;2.22;1.10;;;;;;;7.40;100.00;92842.03;2106116;28;20032;-82
2024/03/18 04:23:59;;;;;;;2.63;1.50;;;;;;;7.34;100.00;92840.25;2102816;28;20021;-83
2024/03/18 04:25:00;;;;;;;5.22;1.20;;;;;;;7.32;100.00;92836.06;2114486;27;20361;-84
2024/03/18 04:26:08;;;;;;;6.32;1.27;;;;;;;7.40;100.00;92839.38;2101732;28;20035;-84
2024/03/18 04:27:09;;;;;;;4.90;3.00;;;;;;;7.35;100.00;92841.72;2098849;28;20146;-87
2024/03/18 04:28:10;;;;;;;4.40;2.30;;;;;;;7.32;100.00;92840.63;2106396;28;20588;-83
2024/03/18 04:29:11;;;;;;;3.95;2.47;;;;;;;7.22;100.00;92844.19;2098205;28;20021;-82
2024/03/18 04:30:19;;;;;;;2.85;1.65;;;;;;;7.36;100.00;92841.31;2091092;28;20028;-82
2024/03/18 04:31:21;;;;;;;1.73;1.63;;;;;;;7.30;100.00;92840.28;2091967;28;20029;-82
2024/03/18 04:32:22;;;;;;;5.65;1.55;;;;;;;7.26;100.00;92832.34;2090004;28;20067;-84
2024/03/18 04:33:23;;;;;;;4.22;1.42;;;;;;;7.30;100.00;92837.63;2097501;28;20044;-85
2024/03/18 04:34:26;;;;;;;3.13;1.40;;;;;;;7.35;100.00;92839.81;2101068;28;20024;-84
2024/03/18 04:35:28;;;;;;;4.25;1.65;;;;;;;7.40;100.00;92834.06;2106733;28;20024;-82
2024/03/18 04:36:38;;;;;;;2.92;1.38;;;;;;;7.32;100.00;92833.38;2102842;28;20055;-83
2024/03/18 04:37:46;;;;;;;3.17;1.40;;;;;;;7.42;100.00;92838.97;2104236;28;20484;-81
2024/03/18 04:38:47;;;;;;;1.67;1.20;;;;;;;7.46;100.00;92843.09;2101326;28;20804;-85
2024/03/18 04:39:48;;;;;;;3.45;1.42;;;;;;;7.37;100.00;92839.41;2098928;28;20115;-88
2024/03/18 04:40:49;;;;;;;3.05;1.50;;;;;;;7.43;100.00;92843.88;2096154;28;20032;-86
2024/03/18 04:41:50;;;;;;;2.78;1.40;;;;;;;7.37;100.00;92842.06;2089222;28;20065;-86
2024/03/18 04:42:52;;;;;;;3.65;1.55;;;;;;;7.35;100.00;92836.41;2098067;28;20036;-84
2024/03/18 04:43:53;;;;;;;3.35;1.25;;;;;;;7.45;100.00;92838.91;2090058;28;20017;-84
2024/03/18 04:44:54;;;;;;;5.38;1.50;;;;;;;7.43;100.00;92835.16;2088517;28;20086;-83
2024/03/18 04:45:55;;;;;;;1.45;1.25;;;;;;;7.54;100.00;92828.50;2098154;28;20025;-87
2024/03/18 04:46:56;;;;;;;3.92;1.30;;;;;;;7.48;100.00;92834.72;2097948;28;20365;-81
2024/03/18 04:47:57;;;;;;;1.70;1.30;;;;;;;7.42;100.00;92829.09;2098022;28;20538;-86
2024/03/18 04:48:58;;;;;;;2.63;1.33;;;;;;;7.36;100.00;92836.00;2097251;28;20028;-80
2024/03/18 04:49:59;;;;;;;3.78;1.20;;;;;;;7.39;100.00;92827.22;2105443;28;20032;-83
2024/03/18 04:51:00;;;;;;;2.70;1.42;;;;;;;7.28;100.00;92829.28;2102255;28;20205;-87
2024/03/18 04:52:01;;;;;;;2.17;1.20;;;;;;;7.26;100.00;92839.56;2105859;28;20131;-84